Language: 


Des rapports , des résumés tant et plus, au choix de chacun....


Données Historiques de Météogheer
Journalier Rapport pour Février 3, 2018 Unitée:  Les deux    Impériale   Métrique
Suivant Jour »
Journalier Hebdomadaire Mensuel Annuel Sur mesure
  Max: Min: Moyenne:
Température: 44.1 °F /  6.7 °C 35.4 °F /  1.9 °C 38.8 °F /  3.8 °C
Point de rosée: 44.6 °F /  7.0 °C 35.6 °F /  2.0 °C 38.5 °F /  3.6 °C
Humidité: 98% 86% 96%
Vent: 9.8mph /  15.8km/h - 0.9mph /  1.5km/h
Rafales: 10.7mph /  17.2km/h - -
Vent- - SW
Pression: 29.8 in /  1009.0 hPa 29.6 in /  1003.9 hPa -
Pluie: 0.1 in /  2.5 mm    
Historical Graphs
 
 
Données tabulaires pour Février 3, 2018
Heure Température Point de rosée Pression Vent Vent Rafales Humidité Pluie Taux (Horaire) Conditions
00:03 35.4 °F /  1.9 °C 35.6 °F /  2.0 °C 29.8in /  1009.0hPa Calm     98% 0in /  0.0mm
00:08 35.6 °F /  2.0 °C 35.6 °F /  2.0 °C 29.8in /  1009.0hPa Calm     98% 0in /  0.0mm
00:13 35.8 °F /  2.1 °C 35.6 °F /  2.0 °C 29.8in /  1009.0hPa Calm     98% 0in /  0.0mm
00:18 36 °F /  2.2 °C 35.6 °F /  2.0 °C 29.8in /  1009.0hPa West 2.9mph /  4.7km/h 2.9mph /  4.7km/h 98% 0in /  0.0mm
00:23 36.3 °F /  2.4 °C 37.4 °F /  3.0 °C 29.8in /  1009.0hPa Calm   2.9mph /  4.7km/h 98% 0in /  0.0mm
00:25 36.3 °F /  2.4 °C 37.4 °F /  3.0 °C 29.8in /  1009.0hPa Calm   2.9mph /  4.7km/h 98% 0in /  0.0mm
00:30 36.7 °F /  2.6 °C 37.4 °F /  3.0 °C 29.8in /  1009.0hPa West 2.7mph /  4.3km/h 2.7mph /  4.3km/h 98% 0in /  0.0mm
00:36 36.9 °F /  2.7 °C 37.4 °F /  3.0 °C 29.8in /  1009.0hPa Calm   2.7mph /  4.3km/h 98% 0in /  0.0mm
00:41 36.9 °F /  2.7 °C 37.4 °F /  3.0 °C 29.8in /  1009.0hPa Calm   2.5mph /  4.0km/h 98% 0in /  0.0mm
00:46 37 °F /  2.8 °C 37.4 °F /  3.0 °C 29.8in /  1009.0hPa Calm   3.6mph /  5.8km/h 98% 0in /  0.0mm
00:51 37 °F /  2.8 °C 37.4 °F /  3.0 °C 29.8in /  1009.0hPa Calm   3.6mph /  5.8km/h 98% 0in /  0.0mm
00:56 37.2 °F /  2.9 °C 37.4 °F /  3.0 °C 29.8in /  1009.0hPa Calm   3.1mph /  5.0km/h 98% 0in /  0.0mm
01:01 37.2 °F /  2.9 °C 37.4 °F /  3.0 °C 29.8in /  1009.0hPa Calm   3.1mph /  5.0km/h 98% 0in /  0.0mm
01:06 37 °F /  2.8 °C 37.4 °F /  3.0 °C 29.8in /  1009.0hPa Calm     98% 0in /  0.0mm
01:11 36.9 °F /  2.7 °C 37.4 °F /  3.0 °C 29.8in /  1009.0hPa West 1.3mph /  2.1km/h 2.5mph /  4.0km/h 98% 0in /  0.0mm
01:16 36.7 °F /  2.6 °C 37.4 °F /  3.0 °C 29.8in /  1009.0hPa Calm   2.5mph /  4.0km/h 98% 0in /  0.0mm
01:21 36.5 °F /  2.5 °C 37.4 °F /  3.0 °C 29.8in /  1009.0hPa Calm     98% 0in /  0.0mm
01:27 36.1 °F /  2.3 °C 37.4 °F /  3.0 °C 29.8in /  1009.0hPa Calm     98% 0in /  0.0mm
01:32 35.8 °F /  2.1 °C 35.6 °F /  2.0 °C 29.8in /  1009.0hPa West 2.5mph /  4.0km/h 2.5mph /  4.0km/h 98% 0in /  0.0mm
01:37 35.8 °F /  2.1 °C 35.6 °F /  2.0 °C 29.8in /  1009.0hPa Calm   4.3mph /  6.9km/h 98% 0in /  0.0mm
01:42 36 °F /  2.2 °C 35.6 °F /  2.0 °C 29.8in /  1009.0hPa West 3.4mph /  5.5km/h 4.3mph /  6.9km/h 98% 0in /  0.0mm
01:47 36.1 °F /  2.3 °C 37.4 °F /  3.0 °C 29.8in /  1009.0hPa Calm   4mph /  6.4km/h 98% 0in /  0.0mm
01:52 36 °F /  2.2 °C 35.6 °F /  2.0 °C 29.8in /  1009.0hPa Calm   4mph /  6.4km/h 98% 0in /  0.0mm
01:57 35.8 °F /  2.1 °C 35.6 °F /  2.0 °C 29.8in /  1009.0hPa Calm   1.1mph /  1.8km/h 98% 0in /  0.0mm
02:02 35.6 °F /  2.0 °C 35.6 °F /  2.0 °C 29.8in /  1009.0hPa Calm     98% 0in /  0.0mm
02:07 35.8 °F /  2.1 °C 35.6 °F /  2.0 °C 29.8in /  1009.0hPa Calm   0.9mph /  1.4km/h 98% 0in /  0.0mm
02:12 35.8 °F /  2.1 °C 35.6 °F /  2.0 °C 29.8in /  1009.0hPa Calm   3.1mph /  5.0km/h 98% 0in /  0.0mm
02:17 36.1 °F /  2.3 °C 37.4 °F /  3.0 °C 29.8in /  1008.0hPa Calm   3.1mph /  5.0km/h 98% 0in /  0.0mm
02:22 36.1 °F /  2.3 °C 37.4 °F /  3.0 °C 29.8in /  1008.0hPa Calm   2.9mph /  4.7km/h 98% 0.01in /  0.3mm
02:27 36.3 °F /  2.4 °C 37.4 °F /  3.0 °C 29.8in /  1008.0hPa Calm     98% 0.01in /  0.3mm
02:32 36.5 °F /  2.5 °C 37.4 °F /  3.0 °C 29.8in /  1009.0hPa Calm     98% 0.01in /  0.3mm
02:37 36.5 °F /  2.5 °C 37.4 °F /  3.0 °C 29.8in /  1009.0hPa Calm     98% 0.01in /  0.3mm
02:42 36.7 °F /  2.6 °C 37.4 °F /  3.0 °C 29.8in /  1009.0hPa Calm     98% 0.01in /  0.3mm
02:48 36.7 °F /  2.6 °C 37.4 °F /  3.0 °C 29.8in /  1009.0hPa WNW 1.6mph /  2.6km/h 2.7mph /  4.3km/h 98% 0.01in /  0.3mm
02:53 36.9 °F /  2.7 °C 37.4 °F /  3.0 °C 29.8in /  1009.0hPa WNW 3.1mph /  5.0km/h 4.7mph /  7.6km/h 98% 0.01in /  0.3mm
02:58 36.9 °F /  2.7 °C 37.4 °F /  3.0 °C 29.8in /  1009.0hPa Calm   4.7mph /  7.6km/h 98% 0.01in /  0.3mm
03:03 37 °F /  2.8 °C 37.4 °F /  3.0 °C 29.8in /  1009.0hPa Calm   2mph /  3.2km/h 98% 0.01in /  0.3mm
03:08 37 °F /  2.8 °C 37.4 °F /  3.0 °C 29.8in /  1009.0hPa West 2.2mph /  3.5km/h 2.2mph /  3.5km/h 98% 0.01in /  0.3mm
03:13 37 °F /  2.8 °C 37.4 °F /  3.0 °C 29.8in /  1009.0hPa West 1.1mph /  1.8km/h 2.2mph /  3.5km/h 98% 0.02in /  0.5mm
03:18 37.2 °F /  2.9 °C 37.4 °F /  3.0 °C 29.8in /  1009.0hPa West 2.5mph /  4.0km/h 3.1mph /  5.0km/h 98% 0.03in /  0.8mm
03:23 37.4 °F /  3.0 °C 37.4 °F /  3.0 °C 29.8in /  1009.0hPa Calm   3.1mph /  5.0km/h 98% 0.02in /  0.5mm
03:28 37.4 °F /  3.0 °C 37.4 °F /  3.0 °C 29.8in /  1009.0hPa Calm   2.9mph /  4.7km/h 98% 0.02in /  0.5mm
03:33 37.4 °F /  3.0 °C 37.4 °F /  3.0 °C 29.8in /  1009.0hPa Calm     98% 0.02in /  0.5mm
03:38 37.2 °F /  2.9 °C 37.4 °F /  3.0 °C 29.8in /  1009.0hPa Calm     98% 0.02in /  0.5mm
03:43 37.2 °F /  2.9 °C 37.4 °F /  3.0 °C 29.8in /  1009.0hPa Calm     98% 0.02in /  0.5mm
03:48 37.2 °F /  2.9 °C 37.4 °F /  3.0 °C 29.8in /  1009.0hPa Calm     98% 0.02in /  0.5mm
03:53 37 °F /  2.8 °C 37.4 °F /  3.0 °C 29.8in /  1009.0hPa Calm     98% 0.02in /  0.5mm
03:58 37 °F /  2.8 °C 37.4 °F /  3.0 °C 29.8in /  1009.0hPa Calm     98% 0.02in /  0.5mm
04:03 36.9 °F /  2.7 °C 37.4 °F /  3.0 °C 29.8in /  1009.0hPa Calm     98% 0.03in /  0.8mm
04:08 36.9 °F /  2.7 °C 37.4 °F /  3.0 °C 29.8in /  1009.0hPa Calm     98% 0.03in /  0.8mm
04:13 36.9 °F /  2.7 °C 37.4 °F /  3.0 °C 29.8in /  1009.0hPa Calm     98% 0.01in /  0.3mm
04:18 36.9 °F /  2.7 °C 37.4 °F /  3.0 °C 29.8in /  1009.0hPa Calm     98% 0.01in /  0.3mm
04:23 36.7 °F /  2.6 °C 37.4 °F /  3.0 °C 29.8in /  1009.0hPa Calm   2.2mph /  3.5km/h 98% 0.01in /  0.3mm
04:28 36.7 °F /  2.6 °C 37.4 °F /  3.0 °C 29.8in /  1008.0hPa Calm   2.2mph /  3.5km/h 98% 0.01in /  0.3mm
04:33 36.3 °F /  2.4 °C 37.4 °F /  3.0 °C 29.8in /  1008.0hPa Calm     98% 0.01in /  0.3mm
04:38 36.1 °F /  2.3 °C 37.4 °F /  3.0 °C 29.8in /  1008.0hPa Calm     98% 0.01in /  0.3mm
04:43 35.8 °F /  2.1 °C 35.6 °F /  2.0 °C 29.7in /  1007.0hPa Calm     98% 0.01in /  0.3mm
04:48 35.6 °F /  2.0 °C 35.6 °F /  2.0 °C 29.7in /  1007.0hPa Calm     98% 0.01in /  0.3mm
04:53 35.6 °F /  2.0 °C 35.6 °F /  2.0 °C 29.7in /  1007.0hPa Calm     98% 0.01in /  0.3mm
04:58 35.6 °F /  2.0 °C 35.6 °F /  2.0 °C 29.7in /  1007.0hPa Calm   1.3mph /  2.1km/h 98% 0.01in /  0.3mm
05:03 35.8 °F /  2.1 °C 35.6 °F /  2.0 °C 29.7in /  1007.0hPa Calm   1.3mph /  2.1km/h 98% 0in /  0.0mm
05:08 35.8 °F /  2.1 °C 35.6 °F /  2.0 °C 29.7in /  1007.0hPa Calm     98% 0in /  0.0mm
05:13 35.8 °F /  2.1 °C 35.6 °F /  2.0 °C 29.7in /  1007.0hPa Calm     98% 0in /  0.0mm
05:18 36 °F /  2.2 °C 35.6 °F /  2.0 °C 29.7in /  1007.0hPa Calm     98% 0in /  0.0mm
05:23 36 °F /  2.2 °C 35.6 °F /  2.0 °C 29.7in /  1007.0hPa Calm     98% 0in /  0.0mm
05:28 36 °F /  2.2 °C 35.6 °F /  2.0 °C 29.7in /  1007.0hPa Calm     98% 0in /  0.0mm
05:33 36.1 °F /  2.3 °C 37.4 °F /  3.0 °C 29.7in /  1007.0hPa Calm     98% 0in /  0.0mm
05:39 36.1 °F /  2.3 °C 37.4 °F /  3.0 °C 29.7in /  1007.0hPa Calm     98% 0in /  0.0mm
05:44 36.1 °F /  2.3 °C 37.4 °F /  3.0 °C 29.7in /  1007.0hPa Calm     98% 0in /  0.0mm
05:49 36.1 °F /  2.3 °C 37.4 °F /  3.0 °C 29.7in /  1007.0hPa Calm     98% 0in /  0.0mm
05:54 36.1 °F /  2.3 °C 37.4 °F /  3.0 °C 29.7in /  1007.0hPa Calm     98% 0in /  0.0mm
05:59 36.1 °F /  2.3 °C 37.4 °F /  3.0 °C 29.7in /  1007.0hPa Calm     98% 0in /  0.0mm
06:04 36.3 °F /  2.4 °C 37.4 °F /  3.0 °C 29.7in /  1007.0hPa Calm     98% 0in /  0.0mm
06:09 36.5 °F /  2.5 °C 37.4 °F /  3.0 °C 29.7in /  1007.0hPa Calm     98% 0in /  0.0mm
06:14 36.7 °F /  2.6 °C 37.4 °F /  3.0 °C 29.7in /  1007.0hPa Calm   2.7mph /  4.3km/h 98% 0in /  0.0mm
06:19 36.7 °F /  2.6 °C 37.4 °F /  3.0 °C 29.7in /  1007.0hPa Calm   2.7mph /  4.3km/h 98% 0in /  0.0mm
06:24 36.9 °F /  2.7 °C 37.4 °F /  3.0 °C 29.7in /  1007.0hPa Calm     98% 0in /  0.0mm
06:29 36.9 °F /  2.7 °C 37.4 °F /  3.0 °C 29.7in /  1006.0hPa Calm     98% 0in /  0.0mm
06:34 36.9 °F /  2.7 °C 37.4 °F /  3.0 °C 29.7in /  1006.0hPa Calm     98% 0in /  0.0mm
06:39 36.9 °F /  2.7 °C 37.4 °F /  3.0 °C 29.7in /  1006.0hPa Calm     98% 0in /  0.0mm
06:44 37 °F /  2.8 °C 37.4 °F /  3.0 °C 29.7in /  1007.0hPa Calm     98% 0in /  0.0mm
06:49 37 °F /  2.8 °C 37.4 °F /  3.0 °C 29.7in /  1007.0hPa Calm     98% 0in /  0.0mm
06:54 37 °F /  2.8 °C 37.4 °F /  3.0 °C 29.7in /  1007.0hPa Calm     98% 0in /  0.0mm
06:59 37 °F /  2.8 °C 37.4 °F /  3.0 °C 29.7in /  1007.0hPa Calm     98% 0in /  0.0mm
07:05 37.2 °F /  2.9 °C 37.4 °F /  3.0 °C 29.7in /  1007.0hPa Calm     98% 0in /  0.0mm
07:10 37.2 °F /  2.9 °C 37.4 °F /  3.0 °C 29.7in /  1007.0hPa Calm     98% 0in /  0.0mm
07:15 37.2 °F /  2.9 °C 37.4 °F /  3.0 °C 29.7in /  1006.0hPa Calm     98% 0in /  0.0mm
07:20 37.2 °F /  2.9 °C 37.4 °F /  3.0 °C 29.7in /  1006.0hPa Calm     98% 0in /  0.0mm
07:25 37.4 °F /  3.0 °C 37.4 °F /  3.0 °C 29.7in /  1006.0hPa Calm     98% 0in /  0.0mm
07:30 37.4 °F /  3.0 °C 37.4 °F /  3.0 °C 29.7in /  1006.0hPa Calm   2.9mph /  4.7km/h 98% 0in /  0.0mm
07:35 37.4 °F /  3.0 °C 37.4 °F /  3.0 °C 29.7in /  1006.0hPa Calm   2.9mph /  4.7km/h 98% 0in /  0.0mm
07:40 37.4 °F /  3.0 °C 37.4 °F /  3.0 °C 29.7in /  1006.0hPa Calm   0.9mph /  1.4km/h 98% 0in /  0.0mm
07:45 37.2 °F /  2.9 °C 37.4 °F /  3.0 °C 29.7in /  1006.0hPa Calm     98% 0in /  0.0mm
07:50 37 °F /  2.8 °C 37.4 °F /  3.0 °C 29.7in /  1006.0hPa Calm     98% 0in /  0.0mm
07:55 37.2 °F /  2.9 °C 37.4 °F /  3.0 °C 29.7in /  1006.0hPa Calm     98% 0in /  0.0mm
08:00 37.2 °F /  2.9 °C 37.4 °F /  3.0 °C 29.7in /  1007.0hPa Calm     98% 0in /  0.0mm
08:05 37.2 °F /  2.9 °C 37.4 °F /  3.0 °C 29.7in /  1007.0hPa Calm     98% 0in /  0.0mm
08:10 37.2 °F /  2.9 °C 37.4 °F /  3.0 °C 29.7in /  1007.0hPa Calm     98% 0in /  0.0mm
08:15 37.2 °F /  2.9 °C 37.4 °F /  3.0 °C 29.7in /  1007.0hPa Calm     98% 0in /  0.0mm
08:20 37.4 °F /  3.0 °C 37.4 °F /  3.0 °C 29.7in /  1007.0hPa Calm     98% 0in /  0.0mm
08:25 37.4 °F /  3.0 °C 37.4 °F /  3.0 °C 29.7in /  1007.0hPa Calm     98% 0in /  0.0mm
08:30 37.4 °F /  3.0 °C 37.4 °F /  3.0 °C 29.7in /  1007.0hPa Calm     98% 0in /  0.0mm
08:35 37.4 °F /  3.0 °C 37.4 °F /  3.0 °C 29.7in /  1007.0hPa Calm     98% 0in /  0.0mm
08:40 37.4 °F /  3.0 °C 37.4 °F /  3.0 °C 29.7in /  1007.0hPa Calm     98% 0in /  0.0mm
08:45 37.4 °F /  3.0 °C 37.4 °F /  3.0 °C 29.7in /  1007.0hPa Calm   2.7mph /  4.3km/h 98% 0in /  0.0mm
08:50 37.4 °F /  3.0 °C 37.4 °F /  3.0 °C 29.7in /  1007.0hPa Calm   2.7mph /  4.3km/h 98% 0in /  0.0mm
08:55 37.4 °F /  3.0 °C 37.4 °F /  3.0 °C 29.7in /  1007.0hPa Calm     98% 0in /  0.0mm
09:00 37.4 °F /  3.0 °C 37.4 °F /  3.0 °C 29.7in /  1007.0hPa Calm   0.9mph /  1.4km/h 98% 0in /  0.0mm
09:06 37.4 °F /  3.0 °C 37.4 °F /  3.0 °C 29.7in /  1007.0hPa Calm   0.9mph /  1.4km/h 98% 0in /  0.0mm
09:11 37.4 °F /  3.0 °C 37.4 °F /  3.0 °C 29.7in /  1007.0hPa Calm     98% 0in /  0.0mm
09:16 37.6 °F /  3.1 °C 37.4 °F /  3.0 °C 29.7in /  1007.0hPa Calm     98% 0in /  0.0mm
09:21 37.6 °F /  3.1 °C 37.4 °F /  3.0 °C 29.7in /  1007.0hPa Calm     98% 0in /  0.0mm
09:26 37.6 °F /  3.1 °C 37.4 °F /  3.0 °C 29.7in /  1007.0hPa Calm     98% 0in /  0.0mm
09:31 37.6 °F /  3.1 °C 37.4 °F /  3.0 °C 29.7in /  1006.0hPa Calm     98% 0in /  0.0mm
09:36 37.6 °F /  3.1 °C 37.4 °F /  3.0 °C 29.7in /  1006.0hPa Calm     98% 0in /  0.0mm
09:41 37.8 °F /  3.2 °C 37.4 °F /  3.0 °C 29.7in /  1006.0hPa Calm     98% 0in /  0.0mm
09:46 37.9 °F /  3.3 °C 37.4 °F /  3.0 °C 29.7in /  1006.0hPa Calm     98% 0in /  0.0mm
09:51 37.9 °F /  3.3 °C 37.4 °F /  3.0 °C 29.7in /  1006.0hPa Calm     98% 0in /  0.0mm
09:56 38.1 °F /  3.4 °C 37.4 °F /  3.0 °C 29.7in /  1006.0hPa Calm   4.9mph /  7.9km/h 98% 0in /  0.0mm
10:01 38.3 °F /  3.5 °C 39.2 °F /  4.0 °C 29.7in /  1007.0hPa Calm   4.9mph /  7.9km/h 98% 0in /  0.0mm
10:06 38.3 °F /  3.5 °C 39.2 °F /  4.0 °C 29.7in /  1007.0hPa Calm     98% 0in /  0.0mm
10:11 38.5 °F /  3.6 °C 39.2 °F /  4.0 °C 29.7in /  1007.0hPa Calm   4mph /  6.4km/h 98% 0in /  0.0mm
10:17 38.5 °F /  3.6 °C 39.2 °F /  4.0 °C 29.7in /  1006.0hPa Calm   4mph /  6.4km/h 98% 0in /  0.0mm
10:22 38.5 °F /  3.6 °C 39.2 °F /  4.0 °C 29.7in /  1006.0hPa Calm   2mph /  3.2km/h 98% 0in /  0.0mm
10:27 38.7 °F /  3.7 °C 39.2 °F /  4.0 °C 29.7in /  1006.0hPa Calm   2.9mph /  4.7km/h 98% 0in /  0.0mm
10:32 38.8 °F /  3.8 °C 39.2 °F /  4.0 °C 29.7in /  1006.0hPa Calm   2.9mph /  4.7km/h 98% 0in /  0.0mm
10:37 39 °F /  3.9 °C 39.2 °F /  4.0 °C 29.7in /  1006.0hPa Calm   3.6mph /  5.8km/h 98% 0in /  0.0mm
10:42 39 °F /  3.9 °C 39.2 °F /  4.0 °C 29.7in /  1006.0hPa WSW 3.6mph /  5.8km/h 5.4mph /  8.7km/h 98% 0in /  0.0mm
10:47 39.2 °F /  4.0 °C 39.2 °F /  4.0 °C 29.7in /  1006.0hPa Calm   5.4mph /  8.7km/h 98% 0in /  0.0mm
10:52 39.4 °F /  4.1 °C 39.2 °F /  4.0 °C 29.7in /  1006.0hPa Calm   4.3mph /  6.9km/h 98% 0in /  0.0mm
10:57 39.6 °F /  4.2 °C 39.2 °F /  4.0 °C 29.7in /  1006.0hPa SSW 1.3mph /  2.1km/h 3.4mph /  5.5km/h 98% 0in /  0.0mm
11:02 39.7 °F /  4.3 °C 39.2 °F /  4.0 °C 29.7in /  1006.0hPa Calm   3.4mph /  5.5km/h 98% 0in /  0.0mm
11:07 40.1 °F /  4.5 °C 41 °F /  5.0 °C 29.7in /  1006.0hPa SW 2.7mph /  4.3km/h 3.4mph /  5.5km/h 98% 0in /  0.0mm
11:12 40.3 °F /  4.6 °C 41 °F /  5.0 °C 29.7in /  1006.0hPa Calm   4.3mph /  6.9km/h 98% 0in /  0.0mm
11:17 40.5 °F /  4.7 °C 41 °F /  5.0 °C 29.7in /  1006.0hPa SSW 3.1mph /  5.0km/h 4.3mph /  6.9km/h 98% 0in /  0.0mm
11:22 40.8 °F /  4.9 °C 41 °F /  5.0 °C 29.7in /  1006.0hPa SSW 2mph /  3.2km/h 3.4mph /  5.5km/h 98% 0in /  0.0mm
11:27 41 °F /  5.0 °C 41 °F /  5.0 °C 29.7in /  1006.0hPa Calm   2.9mph /  4.7km/h 98% 0in /  0.0mm
11:32 41.2 °F /  5.1 °C 41 °F /  5.0 °C 29.7in /  1006.0hPa SW 2.5mph /  4.0km/h 3.6mph /  5.8km/h 98% 0in /  0.0mm
11:38 41.4 °F /  5.2 °C 41 °F /  5.0 °C 29.7in /  1006.0hPa Calm   3.6mph /  5.8km/h 98% 0in /  0.0mm
11:43 41.4 °F /  5.2 °C 41 °F /  5.0 °C 29.7in /  1006.0hPa Calm   3.6mph /  5.8km/h 98% 0in /  0.0mm
11:48 41.5 °F /  5.3 °C 42.8 °F /  6.0 °C 29.7in /  1005.0hPa Calm   4.9mph /  7.9km/h 98% 0in /  0.0mm
11:53 41.5 °F /  5.3 °C 42.8 °F /  6.0 °C 29.7in /  1005.0hPa SW 0.9mph /  1.4km/h 4.9mph /  7.9km/h 98% 0in /  0.0mm
11:58 41.7 °F /  5.4 °C 42.8 °F /  6.0 °C 29.7in /  1005.0hPa Calm   4.3mph /  6.9km/h 98% 0in /  0.0mm
12:03 41.7 °F /  5.4 °C 42.8 °F /  6.0 °C 29.7in /  1006.0hPa SW 1.6mph /  2.6km/h 5.8mph /  9.3km/h 98% 0in /  0.0mm
12:08 41.9 °F /  5.5 °C 42.8 °F /  6.0 °C 29.7in /  1006.0hPa Calm   5.8mph /  9.3km/h 98% 0in /  0.0mm
12:13 42.1 °F /  5.6 °C 42.8 °F /  6.0 °C 29.7in /  1006.0hPa WSW 4mph /  6.4km/h 5.8mph /  9.3km/h 98% 0in /  0.0mm
12:18 42.3 °F /  5.7 °C 42.8 °F /  6.0 °C 29.7in /  1005.0hPa WSW 5.6mph /  9.0km/h 5.8mph /  9.3km/h 98% 0in /  0.0mm
12:23 42.3 °F /  5.7 °C 42.8 °F /  6.0 °C 29.7in /  1005.0hPa WSW 3.6mph /  5.8km/h 6.3mph /  10.1km/h 98% 0in /  0.0mm
12:28 42.4 °F /  5.8 °C 42.8 °F /  6.0 °C 29.7in /  1005.0hPa Calm   6.3mph /  10.1km/h 98% 0in /  0.0mm
12:33 42.6 °F /  5.9 °C 42.8 °F /  6.0 °C 29.7in /  1005.0hPa WSW 4.7mph /  7.6km/h 6mph /  9.7km/h 98% 0in /  0.0mm
12:38 42.8 °F /  6.0 °C 42.8 °F /  6.0 °C 29.7in /  1005.0hPa SW 3.4mph /  5.5km/h 4.7mph /  7.6km/h 98% 0in /  0.0mm
12:43 42.8 °F /  6.0 °C 42.8 °F /  6.0 °C 29.7in /  1005.0hPa SW 4.3mph /  6.9km/h 5.6mph /  9.0km/h 98% 0in /  0.0mm
12:48 43 °F /  6.1 °C 42.8 °F /  6.0 °C 29.7in /  1005.0hPa WSW 4.3mph /  6.9km/h 5.6mph /  9.0km/h 98% 0in /  0.0mm
12:53 43.3 °F /  6.3 °C 42.8 °F /  6.0 °C 29.7in /  1005.0hPa SW 2mph /  3.2km/h 5.6mph /  9.0km/h 98% 0in /  0.0mm
12:58 43.5 °F /  6.4 °C 42.8 °F /  6.0 °C 29.7in /  1005.0hPa Calm   5.4mph /  8.7km/h 98% 0in /  0.0mm
13:03 43.7 °F /  6.5 °C 44.6 °F /  7.0 °C 29.7in /  1005.0hPa Calm   4.9mph /  7.9km/h 98% 0in /  0.0mm
13:08 43.9 °F /  6.6 °C 44.6 °F /  7.0 °C 29.7in /  1005.0hPa Calm   5.4mph /  8.7km/h 98% 0in /  0.0mm
13:13 44.1 °F /  6.7 °C 44.6 °F /  7.0 °C 29.7in /  1005.0hPa WSW 4mph /  6.4km/h 5.6mph /  9.0km/h 98% 0in /  0.0mm
13:18 44.1 °F /  6.7 °C 44.6 °F /  7.0 °C 29.7in /  1005.0hPa WSW 6.5mph /  10.5km/h 6.5mph /  10.5km/h 98% 0in /  0.0mm
13:23 43.9 °F /  6.6 °C 44.6 °F /  7.0 °C 29.7in /  1005.0hPa WSW 5.8mph /  9.3km/h 8.7mph /  14.0km/h 98% 0in /  0.0mm
13:28 44.1 °F /  6.7 °C 44.6 °F /  7.0 °C 29.6in /  1003.9hPa WSW 6.3mph /  10.1km/h 9.2mph /  14.8km/h 98% 0in /  0.0mm
13:33 44.1 °F /  6.7 °C 44.6 °F /  7.0 °C 29.6in /  1003.9hPa SW 6.3mph /  10.1km/h 9.2mph /  14.8km/h 98% 0in /  0.0mm
13:38 44.1 °F /  6.7 °C 44.6 °F /  7.0 °C 29.6in /  1003.9hPa SW 7.8mph /  12.6km/h 7.8mph /  12.6km/h 98% 0in /  0.0mm
13:44 43.9 °F /  6.6 °C 44.6 °F /  7.0 °C 29.6in /  1003.9hPa West 9.6mph /  15.4km/h 9.6mph /  15.4km/h 98% 0in /  0.0mm
13:49 43.5 °F /  6.4 °C 42.8 °F /  6.0 °C 29.6in /  1003.9hPa WSW 7.8mph /  12.6km/h 9.8mph /  15.8km/h 97% 0in /  0.0mm
13:54 43.3 °F /  6.3 °C 42.8 °F /  6.0 °C 29.6in /  1003.9hPa West 6.3mph /  10.1km/h 10.7mph /  17.2km/h 94% 0in /  0.0mm
13:59 43.3 °F /  6.3 °C 41 °F /  5.0 °C 29.6in /  1003.9hPa WSW 7.6mph /  12.2km/h 10.7mph /  17.2km/h 92% 0in /  0.0mm
14:04 43.5 °F /  6.4 °C 41 °F /  5.0 °C 29.6in /  1003.9hPa West 8.9mph /  14.3km/h 8.9mph /  14.3km/h 91% 0in /  0.0mm
14:09 43.5 °F /  6.4 °C 41 °F /  5.0 °C 29.6in /  1003.9hPa Calm   8.9mph /  14.3km/h 91% 0in /  0.0mm
14:14 43.5 °F /  6.4 °C 41 °F /  5.0 °C 29.7in /  1005.0hPa WSW 9.8mph /  15.8km/h 9.8mph /  15.8km/h 90% 0in /  0.0mm
14:19 43.5 °F /  6.4 °C 41 °F /  5.0 °C 29.7in /  1005.0hPa SW 4.9mph /  7.9km/h 9.8mph /  15.8km/h 90% 0in /  0.0mm
14:24 43.7 °F /  6.5 °C 41 °F /  5.0 °C 29.7in /  1005.0hPa SW 6.5mph /  10.5km/h 9.8mph /  15.8km/h 90% 0in /  0.0mm
14:29 43.9 °F /  6.6 °C 42.8 °F /  6.0 °C 29.7in /  1005.0hPa WSW 6mph /  9.7km/h 7.8mph /  12.6km/h 91% 0in /  0.0mm
14:34 44.1 °F /  6.7 °C 41 °F /  5.0 °C 29.7in /  1005.0hPa WSW 5.8mph /  9.3km/h 7.4mph /  11.9km/h 90% 0in /  0.0mm
14:39 44.1 °F /  6.7 °C 41 °F /  5.0 °C 29.7in /  1005.0hPa WSW 6mph /  9.7km/h 7.6mph /  12.2km/h 89% 0in /  0.0mm
14:44 44.1 °F /  6.7 °C 41 °F /  5.0 °C 29.7in /  1005.0hPa WSW 6.5mph /  10.5km/h 7.6mph /  12.2km/h 89% 0in /  0.0mm
14:49 44.1 °F /  6.7 °C 41 °F /  5.0 °C 29.7in /  1005.0hPa WSW 6mph /  9.7km/h 8.1mph /  13.0km/h 87% 0in /  0.0mm
14:54 44.1 °F /  6.7 °C 41 °F /  5.0 °C 29.7in /  1005.0hPa Calm   8.1mph /  13.0km/h 87% 0in /  0.0mm
14:59 44.1 °F /  6.7 °C 41 °F /  5.0 °C 29.7in /  1005.0hPa SSW 3.6mph /  5.8km/h 6.5mph /  10.5km/h 87% 0in /  0.0mm
15:04 43.9 °F /  6.6 °C 41 °F /  5.0 °C 29.7in /  1005.0hPa WSW 4.9mph /  7.9km/h 6.7mph /  10.8km/h 87% 0in /  0.0mm
15:09 43.7 °F /  6.5 °C 41 °F /  5.0 °C 29.7in /  1005.0hPa SW 8.5mph /  13.7km/h 8.5mph /  13.7km/h 86% 0in /  0.0mm
15:14 43.5 °F /  6.4 °C 39.2 °F /  4.0 °C 29.7in /  1005.0hPa WSW 6mph /  9.7km/h 8.5mph /  13.7km/h 86% 0in /  0.0mm
15:19 43.5 °F /  6.4 °C 39.2 °F /  4.0 °C 29.7in /  1005.0hPa Calm   7.4mph /  11.9km/h 86% 0in /  0.0mm
15:25 43.5 °F /  6.4 °C 39.2 °F /  4.0 °C 29.7in /  1005.0hPa Calm   7.4mph /  11.9km/h 86% 0in /  0.0mm
15:30 43.5 °F /  6.4 °C 39.2 °F /  4.0 °C 29.7in /  1005.0hPa WSW 6mph /  9.7km/h 6.3mph /  10.1km/h 86% 0in /  0.0mm
15:35 43.5 °F /  6.4 °C 39.2 °F /  4.0 °C 29.7in /  1005.0hPa WSW 5.6mph /  9.0km/h 6.3mph /  10.1km/h 86% 0in /  0.0mm
15:40 43.3 °F /  6.3 °C 39.2 °F /  4.0 °C 29.7in /  1005.0hPa WSW 5.8mph /  9.3km/h 7.4mph /  11.9km/h 86% 0in /  0.0mm
15:45 43 °F /  6.1 °C 39.2 °F /  4.0 °C 29.7in /  1005.0hPa WSW 5.8mph /  9.3km/h 7.4mph /  11.9km/h 86% 0in /  0.0mm
15:50 42.8 °F /  6.0 °C 39.2 °F /  4.0 °C 29.7in /  1005.0hPa SW 4.9mph /  7.9km/h 7.4mph /  11.9km/h 86% 0in /  0.0mm
15:55 42.8 °F /  6.0 °C 39.2 °F /  4.0 °C 29.7in /  1005.0hPa Calm   6.5mph /  10.5km/h 87% 0in /  0.0mm
16:00 42.4 °F /  5.8 °C 39.2 °F /  4.0 °C 29.7in /  1005.0hPa WSW 2.7mph /  4.3km/h 5.6mph /  9.0km/h 87% 0in /  0.0mm
16:05 42.3 °F /  5.7 °C 39.2 °F /  4.0 °C 29.7in /  1005.0hPa Calm   5.8mph /  9.3km/h 87% 0in /  0.0mm
16:10 42.1 °F /  5.6 °C 39.2 °F /  4.0 °C 29.7in /  1005.0hPa Calm   5.8mph /  9.3km/h 87% 0in /  0.0mm
16:15 42.1 °F /  5.6 °C 39.2 °F /  4.0 °C 29.7in /  1005.0hPa Calm   5.6mph /  9.0km/h 87% 0in /  0.0mm
16:20 41.9 °F /  5.5 °C 39.2 °F /  4.0 °C 29.7in /  1005.0hPa Calm   4.7mph /  7.6km/h 87% 0in /  0.0mm
16:26 41.7 °F /  5.4 °C 39.2 °F /  4.0 °C 29.7in /  1005.0hPa Calm   2.5mph /  4.0km/h 87% 0in /  0.0mm
16:31 41.7 °F /  5.4 °C 39.2 °F /  4.0 °C 29.7in /  1005.0hPa Calm   2.5mph /  4.0km/h 88% 0in /  0.0mm
16:36 41.7 °F /  5.4 °C 39.2 °F /  4.0 °C 29.7in /  1005.0hPa Calm   0.9mph /  1.4km/h 88% 0in /  0.0mm
16:41 41.7 °F /  5.4 °C 39.2 °F /  4.0 °C 29.7in /  1005.0hPa Calm     88% 0in /  0.0mm
16:46 41.7 °F /  5.4 °C 39.2 °F /  4.0 °C 29.7in /  1005.0hPa Calm     88% 0in /  0.0mm
16:51 41.7 °F /  5.4 °C 39.2 °F /  4.0 °C 29.7in /  1005.0hPa Calm     88% 0in /  0.0mm
16:56 41.7 °F /  5.4 °C 39.2 °F /  4.0 °C 29.7in /  1005.0hPa Calm     87% 0in /  0.0mm
17:01 41.5 °F /  5.3 °C 39.2 °F /  4.0 °C 29.7in /  1005.0hPa Calm     87% 0in /  0.0mm
17:06 41.5 °F /  5.3 °C 39.2 °F /  4.0 °C 29.7in /  1005.0hPa Calm     87% 0in /  0.0mm
17:11 41.4 °F /  5.2 °C 37.4 °F /  3.0 °C 29.7in /  1005.0hPa Calm     87% 0in /  0.0mm
17:16 41.2 °F /  5.1 °C 37.4 °F /  3.0 °C 29.7in /  1005.0hPa Calm     87% 0in /  0.0mm
17:21 41.2 °F /  5.1 °C 37.4 °F /  3.0 °C 29.7in /  1005.0hPa Calm   0.9mph /  1.4km/h 87% 0in /  0.0mm
17:26 41 °F /  5.0 °C 37.4 °F /  3.0 °C 29.7in /  1005.0hPa Calm   0.9mph /  1.4km/h 88% 0in /  0.0mm
17:32 40.8 °F /  4.9 °C 37.4 °F /  3.0 °C 29.7in /  1005.0hPa Calm     89% 0in /  0.0mm
17:37 40.6 °F /  4.8 °C 37.4 °F /  3.0 °C 29.7in /  1005.0hPa Calm     89% 0in /  0.0mm
17:42 40.6 °F /  4.8 °C 37.4 °F /  3.0 °C 29.7in /  1005.0hPa Calm     89% 0in /  0.0mm
17:47 40.5 °F /  4.7 °C 37.4 °F /  3.0 °C 29.7in /  1005.0hPa Calm     90% 0in /  0.0mm
17:52 40.5 °F /  4.7 °C 37.4 °F /  3.0 °C 29.7in /  1005.0hPa Calm     90% 0in /  0.0mm
17:57 40.5 °F /  4.7 °C 37.4 °F /  3.0 °C 29.7in /  1005.0hPa Calm   1.1mph /  1.8km/h 91% 0in /  0.0mm
18:02 40.3 °F /  4.6 °C 37.4 °F /  3.0 °C 29.7in /  1005.0hPa Calm   1.1mph /  1.8km/h 91% 0in /  0.0mm
18:07 40.3 °F /  4.6 °C 37.4 °F /  3.0 °C 29.7in /  1005.0hPa Calm     92% 0.01in /  0.3mm
18:12 40.3 °F /  4.6 °C 37.4 °F /  3.0 °C 29.7in /  1005.0hPa Calm     92% 0.01in /  0.3mm
18:17 40.3 °F /  4.6 °C 37.4 °F /  3.0 °C 29.7in /  1005.0hPa Calm     92% 0.01in /  0.3mm
18:22 40.1 °F /  4.5 °C 39.2 °F /  4.0 °C 29.7in /  1005.0hPa Calm     93% 0.01in /  0.3mm
18:27 40.1 °F /  4.5 °C 39.2 °F /  4.0 °C 29.7in /  1005.0hPa Calm     93% 0.01in /  0.3mm
18:32 39.9 °F /  4.4 °C 37.4 °F /  3.0 °C 29.7in /  1005.0hPa Calm   0.9mph /  1.4km/h 93% 0.01in /  0.3mm
18:37 39.9 °F /  4.4 °C 37.4 °F /  3.0 °C 29.7in /  1005.0hPa Calm   0.9mph /  1.4km/h 93% 0.01in /  0.3mm
18:42 39.9 °F /  4.4 °C 37.4 °F /  3.0 °C 29.7in /  1005.0hPa Calm     94% 0.01in /  0.3mm
18:47 39.7 °F /  4.3 °C 37.4 °F /  3.0 °C 29.7in /  1005.0hPa Calm     94% 0.01in /  0.3mm
18:52 39.7 °F /  4.3 °C 37.4 °F /  3.0 °C 29.7in /  1005.0hPa Calm   2.5mph /  4.0km/h 94% 0.01in /  0.3mm
18:57 39.6 °F /  4.2 °C 39.2 °F /  4.0 °C 29.7in /  1005.0hPa NNE 3.1mph /  5.0km/h 4.3mph /  6.9km/h 95% 0.01in /  0.3mm
19:02 39.6 °F /  4.2 °C 39.2 °F /  4.0 °C 29.7in /  1005.0hPa NNE 3.1mph /  5.0km/h 4.3mph /  6.9km/h 95% 0.01in /  0.3mm
19:07 39.4 °F /  4.1 °C 37.4 °F /  3.0 °C 29.7in /  1005.0hPa Calm   4.3mph /  6.9km/h 95% 0.01in /  0.3mm
19:12 39.4 °F /  4.1 °C 39.2 °F /  4.0 °C 29.7in /  1005.0hPa Calm   4.5mph /  7.2km/h 96% 0.01in /  0.3mm
19:18 39.4 °F /  4.1 °C 39.2 °F /  4.0 °C 29.7in /  1005.0hPa Calm   4.5mph /  7.2km/h 96% 0.01in /  0.3mm
19:23 39.2 °F /  4.0 °C 39.2 °F /  4.0 °C 29.7in /  1005.0hPa Calm   4.3mph /  6.9km/h 96% 0.01in /  0.3mm
19:28 39 °F /  3.9 °C 39.2 °F /  4.0 °C 29.7in /  1005.0hPa Calm   4.3mph /  6.9km/h 96% 0.01in /  0.3mm
19:33 39 °F /  3.9 °C 39.2 °F /  4.0 °C 29.7in /  1006.0hPa Calm   2mph /  3.2km/h 96% 0.01in /  0.3mm
19:38 38.8 °F /  3.8 °C 37.4 °F /  3.0 °C 29.7in /  1006.0hPa Calm   2mph /  3.2km/h 97% 0.01in /  0.3mm
19:43 38.8 °F /  3.8 °C 37.4 °F /  3.0 °C 29.7in /  1006.0hPa Calm   1.1mph /  1.8km/h 97% 0.01in /  0.3mm
19:48 38.8 °F /  3.8 °C 37.4 °F /  3.0 °C 29.7in /  1006.0hPa Calm     97% 0.01in /  0.3mm
19:53 38.8 °F /  3.8 °C 37.4 °F /  3.0 °C 29.7in /  1006.0hPa Calm     97% 0.01in /  0.3mm
19:58 38.8 °F /  3.8 °C 39.2 °F /  4.0 °C 29.7in /  1006.0hPa Calm     98% 0.03in /  0.8mm
20:03 38.8 °F /  3.8 °C 39.2 °F /  4.0 °C 29.7in /  1006.0hPa Calm     98% 0.03in /  0.8mm
20:08 38.7 °F /  3.7 °C 39.2 °F /  4.0 °C 29.7in /  1006.0hPa ENE 4.9mph /  7.9km/h 4.9mph /  7.9km/h 98% 0.01in /  0.3mm
20:13 38.7 °F /  3.7 °C 39.2 °F /  4.0 °C 29.7in /  1006.0hPa Calm   5.8mph /  9.3km/h 98% 0.01in /  0.3mm
20:18 38.7 °F /  3.7 °C 39.2 °F /  4.0 °C 29.7in /  1006.0hPa Calm   5.8mph /  9.3km/h 98% 0.01in /  0.3mm
20:23 38.7 °F /  3.7 °C 39.2 °F /  4.0 °C 29.7in /  1006.0hPa Calm   3.1mph /  5.0km/h 98% 0.01in /  0.3mm
20:28 38.7 °F /  3.7 °C 39.2 °F /  4.0 °C 29.7in /  1006.0hPa Calm   3.6mph /  5.8km/h 98% 0.01in /  0.3mm
20:33 38.7 °F /  3.7 °C 39.2 °F /  4.0 °C 29.7in /  1006.0hPa Calm   3.6mph /  5.8km/h 98% 0.01in /  0.3mm
20:38 38.7 °F /  3.7 °C 39.2 °F /  4.0 °C 29.7in /  1006.0hPa NE 2mph /  3.2km/h 2.9mph /  4.7km/h 98% 0.01in /  0.3mm
20:43 38.5 °F /  3.6 °C 39.2 °F /  4.0 °C 29.7in /  1007.0hPa Calm   3.8mph /  6.1km/h 98% 0.03in /  0.8mm
20:49 38.5 °F /  3.6 °C 39.2 °F /  4.0 °C 29.7in /  1007.0hPa Calm   3.8mph /  6.1km/h 98% 0.03in /  0.8mm
20:54 38.5 °F /  3.6 °C 39.2 °F /  4.0 °C 29.7in /  1007.0hPa Calm     98% 0.03in /  0.8mm
20:59 38.3 °F /  3.5 °C 39.2 °F /  4.0 °C 29.7in /  1007.0hPa Calm   3.6mph /  5.8km/h 98% 0.01in /  0.3mm
21:04 38.3 °F /  3.5 °C 39.2 °F /  4.0 °C 29.7in /  1007.0hPa Calm   3.6mph /  5.8km/h 98% 0.01in /  0.3mm
21:09 38.3 °F /  3.5 °C 39.2 °F /  4.0 °C 29.7in /  1007.0hPa Calm     98% 0.01in /  0.3mm
21:14 38.3 °F /  3.5 °C 39.2 °F /  4.0 °C 29.7in /  1007.0hPa Calm     98% 0.01in /  0.3mm
21:19 38.1 °F /  3.4 °C 37.4 °F /  3.0 °C 29.7in /  1007.0hPa ENE 2.5mph /  4.0km/h 2.5mph /  4.0km/h 98% 0.01in /  0.3mm
21:24 38.1 °F /  3.4 °C 37.4 °F /  3.0 °C 29.7in /  1007.0hPa Calm   2.5mph /  4.0km/h 98% 0.01in /  0.3mm
21:29 38.1 °F /  3.4 °C 37.4 °F /  3.0 °C 29.7in /  1007.0hPa Calm     98% 0.01in /  0.3mm
21:34 38.1 °F /  3.4 °C 37.4 °F /  3.0 °C 29.7in /  1007.0hPa Calm     98% 0.01in /  0.3mm
21:39 38.1 °F /  3.4 °C 37.4 °F /  3.0 °C 29.7in /  1007.0hPa Calm     98% 0.01in /  0.3mm
21:44 37.9 °F /  3.3 °C 37.4 °F /  3.0 °C 29.8in /  1008.0hPa Calm     98% 0in /  0.0mm
21:49 37.9 °F /  3.3 °C 37.4 °F /  3.0 °C 29.8in /  1008.0hPa Calm     98% 0in /  0.0mm
21:54 38.1 °F /  3.4 °C 37.4 °F /  3.0 °C 29.8in /  1008.0hPa Calm     98% 0in /  0.0mm
21:59 38.1 °F /  3.4 °C 37.4 °F /  3.0 °C 29.8in /  1008.0hPa Calm     98% 0in /  0.0mm
22:04 38.1 °F /  3.4 °C 37.4 °F /  3.0 °C 29.7in /  1007.0hPa Calm     98% 0in /  0.0mm
22:09 37.9 °F /  3.3 °C 37.4 °F /  3.0 °C 29.7in /  1007.0hPa Calm     98% 0in /  0.0mm
22:14 37.9 °F /  3.3 °C 37.4 °F /  3.0 °C 29.7in /  1007.0hPa Calm     98% 0in /  0.0mm
22:19 37.8 °F /  3.2 °C 37.4 °F /  3.0 °C 29.7in /  1007.0hPa Calm     98% 0in /  0.0mm
22:24 37.6 °F /  3.1 °C 37.4 °F /  3.0 °C 29.7in /  1007.0hPa Calm     98% 0in /  0.0mm
22:29 37.4 °F /  3.0 °C 37.4 °F /  3.0 °C 29.8in /  1008.0hPa Calm     98% 0in /  0.0mm
22:34 37.4 °F /  3.0 °C 37.4 °F /  3.0 °C 29.8in /  1008.0hPa Calm     98% 0in /  0.0mm
22:39 37.2 °F /  2.9 °C 37.4 °F /  3.0 °C 29.8in /  1008.0hPa Calm     98% 0in /  0.0mm
22:44 37 °F /  2.8 °C 37.4 °F /  3.0 °C 29.8in /  1008.0hPa Calm   1.3mph /  2.1km/h 98% 0in /  0.0mm
22:49 36.9 °F /  2.7 °C 37.4 °F /  3.0 °C 29.8in /  1008.0hPa North 1.1mph /  1.8km/h 2mph /  3.2km/h 98% 0in /  0.0mm
22:54 36.9 °F /  2.7 °C 37.4 °F /  3.0 °C 29.8in /  1008.0hPa Calm   2mph /  3.2km/h 98% 0in /  0.0mm
22:59 36.7 °F /  2.6 °C 37.4 °F /  3.0 °C 29.8in /  1008.0hPa Calm     98% 0in /  0.0mm
23:05 36.5 °F /  2.5 °C 37.4 °F /  3.0 °C 29.8in /  1008.0hPa Calm     98% 0in /  0.0mm
23:10 36.3 °F /  2.4 °C 37.4 °F /  3.0 °C 29.8in /  1008.0hPa Calm     98% 0in /  0.0mm
23:15 36.3 °F /  2.4 °C 37.4 °F /  3.0 °C 29.8in /  1009.0hPa Calm     98% 0in /  0.0mm
23:20 36.1 °F /  2.3 °C 37.4 °F /  3.0 °C 29.8in /  1009.0hPa Calm     98% 0in /  0.0mm
23:25 36.1 °F /  2.3 °C 37.4 °F /  3.0 °C 29.8in /  1009.0hPa Calm     98% 0in /  0.0mm
23:30 36.1 °F /  2.3 °C 37.4 °F /  3.0 °C 29.8in /  1009.0hPa Calm     98% 0in /  0.0mm
23:35 36 °F /  2.2 °C 35.6 °F /  2.0 °C 29.8in /  1009.0hPa Calm     98% 0in /  0.0mm
23:40 36 °F /  2.2 °C 35.6 °F /  2.0 °C 29.8in /  1009.0hPa Calm     98% 0in /  0.0mm
23:45 35.8 °F /  2.1 °C 35.6 °F /  2.0 °C 29.8in /  1009.0hPa Calm     98% 0in /  0.0mm
23:50 35.8 °F /  2.1 °C 35.6 °F /  2.0 °C 29.8in /  1009.0hPa Calm   2mph /  3.2km/h 98% 0in /  0.0mm
23:55 35.6 °F /  2.0 °C 35.6 °F /  2.0 °C 29.8in /  1009.0hPa Calm   3.1mph /  5.0km/h 98% 0in /  0.0mm
Données Historique de Météo Turbie

Mise a jour : 22/05/2018 21:48:14
Généré par Cumulus 1.9.4 (1099)